Time;durP1;ratioP1;P1;durP2;ratioP2;P2;SDS_P1;SDS_P2;PMS_P1;PMS_P2;Temp;Humidity;BMP_temperature;BMP_pressure;BME280_temperature;BME280_humidity;BME280_pressure;Samples;Min_cycle;Max_cycle;Signal;HPM_P1;HPM_P2
2024/02/28 00:02:38;;;;;;;20.95;16.02;;;;;;;-146.18;100.00;67994.34;10342088;28;20160;-71
2024/02/28 00:07:35;;;;;;;24.65;18.65;;;;;;;-146.18;100.00;67994.34;10353791;27;20492;-73
2024/02/28 00:12:31;;;;;;;26.45;20.02;;;;;;;-146.18;100.00;67994.34;10352712;27;20101;-72
2024/02/28 00:17:28;;;;;;;29.35;20.85;;;;;;;-146.18;100.00;67994.34;10353684;27;20047;-72
2024/02/28 00:22:24;;;;;;;33.38;22.08;;;;;;;-146.18;100.00;67994.34;10349901;27;20051;-70
2024/02/28 00:27:21;;;;;;;28.27;20.48;;;;;;;-146.18;100.00;67994.34;10357085;27;20040;-71
2024/02/28 00:32:17;;;;;;;30.67;20.95;;;;;;;-146.18;100.00;67994.34;10346579;27;20044;-72
2024/02/28 00:37:14;;;;;;;31.92;22.67;;;;;;;-146.18;100.00;67994.34;10351352;28;20093;-71
2024/02/28 00:42:11;;;;;;;32.97;21.60;;;;;;;-146.18;100.00;67994.34;10353317;27;20040;-72
2024/02/28 00:47:07;;;;;;;31.67;23.35;;;;;;;-146.18;100.00;67994.34;10347147;28;20115;-71
2024/02/28 00:52:05;;;;;;;34.08;24.05;;;;;;;-146.18;100.00;67994.34;10350175;27;20419;-72
2024/02/28 00:57:01;;;;;;;35.08;22.63;;;;;;;-146.18;100.00;67994.34;10357970;27;20052;-71
2024/02/28 01:01:57;;;;;;;33.03;22.23;;;;;;;-146.18;100.00;67994.34;10362581;27;20064;-72
2024/02/28 01:06:54;;;;;;;38.10;24.08;;;;;;;-146.18;100.00;67994.34;10353731;27;20040;-74
2024/02/28 01:11:51;;;;;;;31.48;22.08;;;;;;;-146.18;100.00;67994.34;10350766;27;20044;-71
2024/02/28 01:16:47;;;;;;;32.20;22.30;;;;;;;-146.18;100.00;67994.34;10349033;27;20056;-72
2024/02/28 01:21:43;;;;;;;33.13;22.90;;;;;;;-146.18;100.00;67994.34;10346875;27;20073;-73
2024/02/28 01:26:41;;;;;;;38.45;22.90;;;;;;;-146.18;100.00;67994.34;10341098;28;20048;-74
2024/02/28 01:31:38;;;;;;;33.47;23.75;;;;;;;-146.18;100.00;67994.34;10350850;28;20047;-73
2024/02/28 01:36:34;;;;;;;32.15;22.58;;;;;;;-146.18;100.00;67994.34;10348796;28;20036;-80
2024/02/28 01:41:31;;;;;;;40.40;25.30;;;;;;;-146.18;100.00;67994.34;10326550;28;20040;-70
2024/02/28 01:46:27;;;;;;;33.15;22.58;;;;;;;-146.18;100.00;67994.34;10356076;28;20051;-70
2024/02/28 01:51:29;;;;;;;35.50;24.42;;;;;;;-146.18;100.00;67994.34;10345986;28;20040;-72
2024/02/28 01:56:26;;;;;;;35.30;22.85;;;;;;;-146.18;100.00;67994.34;10350325;28;20044;-70
2024/02/28 02:01:22;;;;;;;37.88;24.48;;;;;;;-146.18;100.00;67994.34;10352203;28;20052;-69
2024/02/28 02:06:19;;;;;;;37.92;24.55;;;;;;;-146.18;100.00;67994.34;10345546;28;20047;-70
2024/02/28 02:11:20;;;;;;;35.67;23.10;;;;;;;-146.18;100.00;67994.34;10364512;27;20047;-71
2024/02/28 02:16:18;;;;;;;37.28;22.45;;;;;;;-146.18;100.00;67994.34;10344413;28;20058;-71
2024/02/28 02:21:18;;;;;;;42.03;23.08;;;;;;;-146.18;100.00;67994.34;10357207;28;20051;-71
2024/02/28 02:26:14;;;;;;;41.90;25.33;;;;;;;-146.18;100.00;67994.34;10354562;28;20044;-71
2024/02/28 02:31:12;;;;;;;40.05;23.88;;;;;;;-146.18;100.00;67994.34;10353542;28;20052;-73
2024/02/28 02:36:09;;;;;;;36.97;23.25;;;;;;;-146.18;100.00;67994.34;10353750;28;20464;-72
2024/02/28 02:41:05;;;;;;;38.42;21.88;;;;;;;-146.18;100.00;67994.34;10360652;28;20134;-72
2024/02/28 02:46:02;;;;;;;40.47;24.02;;;;;;;-146.18;100.00;67994.34;10336305;28;20045;-72
2024/02/28 02:50:58;;;;;;;36.95;20.98;;;;;;;-146.18;100.00;67994.34;10308813;28;20456;-73
2024/02/28 02:55:55;;;;;;;35.22;20.58;;;;;;;-146.18;100.00;67994.34;10340929;28;20469;-73
2024/02/28 03:00:51;;;;;;;35.95;22.27;;;;;;;-146.18;100.00;67994.34;10349881;28;20504;-71
2024/02/28 03:05:48;;;;;;;35.75;20.60;;;;;;;-146.18;100.00;67994.34;10347787;28;20046;-72
2024/02/28 03:10:44;;;;;;;39.85;22.08;;;;;;;-146.18;100.00;67994.34;10344759;28;20085;-72
2024/02/28 03:15:41;;;;;;;34.63;19.70;;;;;;;-146.18;100.00;67994.34;10341452;28;20105;-70
2024/02/28 03:20:38;;;;;;;36.70;21.83;;;;;;;-146.18;100.00;67994.34;10372309;28;20092;-72
2024/02/28 03:25:34;;;;;;;30.50;18.45;;;;;;;-146.18;100.00;67994.34;10357769;28;20078;-73
2024/02/28 03:30:31;;;;;;;31.52;18.92;;;;;;;-146.18;100.00;67994.34;10354674;28;20438;-73
2024/02/28 03:35:28;;;;;;;35.75;19.95;;;;;;;-146.18;100.00;67994.34;10334456;28;20040;-71
2024/02/28 03:40:24;;;;;;;34.60;19.20;;;;;;;-146.18;100.00;67994.34;10335664;28;20470;-75
2024/02/28 03:45:21;;;;;;;32.30;19.38;;;;;;;-146.18;100.00;67994.34;10348524;28;20048;-73
2024/02/28 03:50:17;;;;;;;31.40;18.48;;;;;;;-146.18;100.00;67994.34;10345095;28;20040;-72
2024/02/28 03:55:15;;;;;;;33.70;18.88;;;;;;;-146.18;100.00;67994.34;10345229;28;20036;-71
2024/02/28 04:00:12;;;;;;;36.17;20.30;;;;;;;-146.18;100.00;67994.34;10343064;28;20102;-72
2024/02/28 04:05:09;;;;;;;32.88;19.23;;;;;;;-146.18;100.00;67994.34;10346445;28;20377;-71
2024/02/28 04:10:06;;;;;;;31.92;20.20;;;;;;;-146.18;100.00;67994.34;10353118;28;20460;-73
2024/02/28 04:15:03;;;;;;;36.70;21.70;;;;;;;-146.18;100.00;67994.34;10341649;28;20044;-72
2024/02/28 04:20:04;;;;;;;36.20;21.10;;;;;;;-146.18;100.00;67994.34;10337113;28;20118;-72
2024/02/28 04:25:00;;;;;;;37.03;21.92;;;;;;;-146.18;100.00;67994.34;10346840;28;20123;-71
2024/02/28 04:29:57;;;;;;;35.17;21.38;;;;;;;-146.18;100.00;67994.34;10345183;28;20470;-72
2024/02/28 04:34:53;;;;;;;36.58;22.25;;;;;;;-146.18;100.00;67994.34;10343223;27;20177;-71
2024/02/28 04:39:50;;;;;;;39.30;23.20;;;;;;;-146.18;100.00;67994.34;10341026;27;20066;-73
2024/02/28 04:44:47;;;;;;;35.78;21.80;;;;;;;-146.18;100.00;67994.34;10339129;28;20071;-69
2024/02/28 04:49:43;;;;;;;38.38;21.80;;;;;;;-146.18;100.00;67994.34;10345610;27;20531;-71
2024/02/28 04:54:40;;;;;;;30.45;20.70;;;;;;;-146.18;100.00;67994.34;10351759;27;20058;-69
2024/02/28 04:59:37;;;;;;;35.13;21.80;;;;;;;-146.18;100.00;67994.34;10345676;27;20052;-70
2024/02/28 05:04:33;;;;;;;38.65;21.90;;;;;;;-146.18;100.00;67994.34;10344242;27;20052;-72
2024/02/28 05:09:30;;;;;;;35.90;22.27;;;;;;;-146.18;100.00;67994.34;10344554;27;20042;-70
2024/02/28 05:14:26;;;;;;;37.42;21.40;;;;;;;-146.18;100.00;67994.34;10339158;27;20129;-70
2024/02/28 05:19:23;;;;;;;35.47;20.88;;;;;;;-146.18;100.00;67994.34;10348573;27;20079;-69
2024/02/28 05:24:19;;;;;;;39.03;22.75;;;;;;;-146.18;100.00;67994.34;10348806;27;20044;-69
2024/02/28 05:29:16;;;;;;;36.13;22.77;;;;;;;-146.18;100.00;67994.34;10347979;27;20044;-71
2024/02/28 05:34:12;;;;;;;34.35;22.38;;;;;;;-146.18;100.00;67994.34;10364069;27;20048;-70
2024/02/28 05:39:09;;;;;;;37.15;22.95;;;;;;;-146.18;100.00;67994.34;10358959;27;20087;-71
2024/02/28 05:44:05;;;;;;;38.13;23.42;;;;;;;-146.18;100.00;67994.34;10353238;27;20040;-69
2024/02/28 05:49:03;;;;;;;37.47;24.20;;;;;;;-146.18;100.00;67994.34;10354631;27;20051;-69
2024/02/28 05:54:00;;;;;;;36.00;23.42;;;;;;;-146.18;100.00;67994.34;10342608;27;20500;-70
2024/02/28 05:58:56;;;;;;;35.00;22.08;;;;;;;-146.18;100.00;67994.34;10354847;27;20043;-71
2024/02/28 06:03:53;;;;;;;35.97;23.10;;;;;;;-146.18;100.00;67994.34;10352193;27;20052;-70
2024/02/28 06:08:49;;;;;;;35.95;23.27;;;;;;;-146.18;100.00;67994.34;10345856;28;20053;-69
2024/02/28 06:13:46;;;;;;;31.75;21.75;;;;;;;-146.18;100.00;67994.34;10350569;27;20840;-70
2024/02/28 06:18:42;;;;;;;27.98;20.42;;;;;;;-146.18;100.00;67994.34;10346386;27;20044;-69
2024/02/28 06:23:39;;;;;;;31.95;22.02;;;;;;;-146.18;100.00;67994.34;10350908;27;20040;-70
2024/02/28 06:28:35;;;;;;;29.17;19.90;;;;;;;-146.18;100.00;67994.34;10341610;27;20051;-75
2024/02/28 06:33:31;;;;;;;28.08;19.20;;;;;;;-146.18;100.00;67994.34;10358744;27;20044;-70
2024/02/28 06:38:28;;;;;;;27.73;20.30;;;;;;;-146.18;100.00;67994.34;10360492;27;20131;-70
2024/02/28 06:43:24;;;;;;;28.38;19.50;;;;;;;-146.18;100.00;67994.34;10349275;27;20040;-69
2024/02/28 06:48:21;;;;;;;27.70;19.35;;;;;;;-146.18;100.00;67994.34;10347052;28;20040;-72
2024/02/28 06:53:17;;;;;;;22.83;18.77;;;;;;;-146.18;100.00;67994.34;10346005;27;20143;-71
2024/02/28 06:58:14;;;;;;;23.88;18.02;;;;;;;-146.18;100.00;67994.34;10345109;27;20041;-69
2024/02/28 07:03:11;;;;;;;24.70;18.98;;;;;;;-146.18;100.00;67994.34;10354296;27;20125;-70
2024/02/28 07:08:10;;;;;;;24.63;18.00;;;;;;;-146.18;100.00;67994.34;10349507;27;20090;-71
2024/02/28 07:13:07;;;;;;;24.50;17.88;;;;;;;-146.18;100.00;67994.34;10348506;27;20059;-75
2024/02/28 07:18:04;;;;;;;23.50;17.52;;;;;;;-146.18;100.00;67994.34;10350588;27;20511;-70
2024/02/28 07:23:00;;;;;;;26.77;19.20;;;;;;;-146.18;100.00;67994.34;10356097;27;20040;-70
2024/02/28 07:27:59;;;;;;;26.70;18.55;;;;;;;-146.18;100.00;67994.34;10350207;27;20048;-73
2024/02/28 07:32:56;;;;;;;26.90;18.58;;;;;;;-146.18;100.00;67994.34;10352769;27;20048;-71
2024/02/28 07:37:53;;;;;;;25.98;19.42;;;;;;;-146.18;100.00;67994.34;10353976;27;20500;-70
2024/02/28 07:42:49;;;;;;;25.13;17.45;;;;;;;-146.18;100.00;67994.34;10350540;27;20048;-69
2024/02/28 07:47:45;;;;;;;31.80;20.70;;;;;;;-146.18;100.00;67994.34;10341037;27;20044;-70
2024/02/28 07:52:42;;;;;;;25.45;18.58;;;;;;;-146.18;100.00;67994.34;10353373;27;20044;-70
2024/02/28 07:57:38;;;;;;;28.63;20.17;;;;;;;-146.18;100.00;67994.34;10360975;27;20040;-70
2024/02/28 08:02:35;;;;;;;28.48;20.08;;;;;;;-146.18;100.00;67994.34;10352991;27;20139;-70
2024/02/28 08:07:31;;;;;;;29.13;20.98;;;;;;;-146.18;100.00;67994.34;10350523;27;20583;-69
2024/02/28 08:12:28;;;;;;;28.63;20.65;;;;;;;-146.18;100.00;67994.34;10342477;28;20070;-71
2024/02/28 08:17:24;;;;;;;31.23;20.55;;;;;;;-146.18;100.00;67994.34;10336970;27;20037;-71
2024/02/28 08:22:21;;;;;;;29.02;20.67;;;;;;;-146.18;100.00;67994.34;10351436;27;20430;-71
2024/02/28 08:27:17;;;;;;;29.58;20.90;;;;;;;-146.18;100.00;67994.34;10362222;27;20054;-72
2024/02/28 08:32:14;;;;;;;30.05;19.88;;;;;;;-146.18;100.00;67994.34;10353666;27;20044;-69
2024/02/28 08:37:10;;;;;;;34.40;21.50;;;;;;;-146.18;100.00;67994.34;10360259;27;20059;-68
2024/02/28 08:42:07;;;;;;;30.20;21.95;;;;;;;-146.18;100.00;67994.34;10349745;28;20039;-71
2024/02/28 08:47:04;;;;;;;32.78;21.83;;;;;;;-146.18;100.00;67994.34;10353258;27;20056;-71
2024/02/28 08:52:00;;;;;;;30.73;21.60;;;;;;;-146.18;100.00;67994.34;10361640;27;20044;-71
2024/02/28 08:56:57;;;;;;;36.13;24.17;;;;;;;-146.18;100.00;67994.34;10349507;27;20036;-70
2024/02/28 09:01:59;;;;;;;36.47;23.25;;;;;;;-146.18;100.00;67994.34;10363580;27;20055;-69
2024/02/28 09:06:56;;;;;;;39.72;25.02;;;;;;;-146.18;100.00;67994.34;10354952;27;20047;-70
2024/02/28 09:11:52;;;;;;;40.80;25.20;;;;;;;-146.18;100.00;67994.34;10350278;28;20066;-69
2024/02/28 09:16:49;;;;;;;41.33;25.75;;;;;;;-146.18;100.00;67994.34;10354131;27;20110;-76
2024/02/28 09:21:47;;;;;;;38.40;25.95;;;;;;;-146.18;100.00;67994.34;10355022;27;20044;-72
2024/02/28 09:26:43;;;;;;;39.22;25.48;;;;;;;-146.18;100.00;67994.34;10357607;27;20074;-70
2024/02/28 09:31:40;;;;;;;36.50;25.00;;;;;;;-146.18;100.00;67994.34;10357441;27;20044;-69
2024/02/28 09:36:43;;;;;;;31.90;23.10;;;;;;;-146.18;100.00;67994.34;10349476;27;20123;-71
2024/02/28 09:41:42;;;;;;;37.25;24.52;;;;;;;-146.18;100.00;67994.34;10357304;27;20063;-71
2024/02/28 09:46:38;;;;;;;35.03;23.65;;;;;;;-146.18;100.00;67994.34;10349324;27;20044;-69
2024/02/28 09:51:35;;;;;;;40.78;24.25;;;;;;;-146.18;100.00;67994.34;10358283;27;20044;-70
2024/02/28 09:56:33;;;;;;;34.40;23.40;;;;;;;-146.18;100.00;67994.34;10364469;27;20050;-73
2024/02/28 10:01:30;;;;;;;37.78;23.48;;;;;;;-146.18;100.00;67994.34;10357508;27;20117;-70
2024/02/28 10:06:27;;;;;;;34.13;22.65;;;;;;;-146.18;100.00;67994.34;10352688;27;20048;-69
2024/02/28 10:11:24;;;;;;;39.58;23.45;;;;;;;-146.18;100.00;67994.34;10358785;27;20051;-69
2024/02/28 10:16:20;;;;;;;35.50;22.05;;;;;;;-146.18;100.00;67994.34;10341389;27;20040;-77
2024/02/28 10:21:17;;;;;;;29.85;20.80;;;;;;;-146.18;100.00;67994.34;10349000;27;20039;-70
2024/02/28 10:26:14;;;;;;;30.55;19.15;;;;;;;-146.18;100.00;67994.34;10345491;27;20052;-70
2024/02/28 10:31:10;;;;;;;27.20;18.38;;;;;;;-146.18;100.00;67994.34;10351627;27;20496;-73
2024/02/28 10:36:07;;;;;;;28.02;18.30;;;;;;;-146.18;100.00;67994.34;10346633;27;20860;-70
2024/02/28 10:41:04;;;;;;;28.55;20.42;;;;;;;-146.18;100.00;67994.34;10351705;27;20085;-69
2024/02/28 10:46:01;;;;;;;26.42;19.23;;;;;;;-146.18;100.00;67994.34;10348867;27;20036;-71
2024/02/28 10:51:02;;;;;;;25.80;18.52;;;;;;;-146.18;100.00;67994.34;10351675;27;20496;-69
2024/02/28 10:56:03;;;;;;;32.78;20.73;;;;;;;-146.18;100.00;67994.34;10359011;27;20040;-70
2024/02/28 11:00:59;;;;;;;31.55;19.50;;;;;;;-146.18;100.00;67994.34;10353912;27;20040;-70
2024/02/28 11:05:56;;;;;;;25.00;17.77;;;;;;;-146.18;100.00;67994.34;10350373;27;20051;-72
2024/02/28 11:11:03;;;;;;;26.40;18.60;;;;;;;-146.18;100.00;67994.34;10355733;27;20048;-70
2024/02/28 11:16:10;;;;;;;28.52;18.98;;;;;;;-146.18;100.00;67994.34;10350552;27;20044;-69
2024/02/28 11:21:15;;;;;;;26.42;18.38;;;;;;;-146.18;100.00;67994.34;10353265;27;20047;-71
2024/02/28 11:26:13;;;;;;;28.05;18.85;;;;;;;-146.18;100.00;67994.34;10354474;27;20495;-69
2024/02/28 11:31:09;;;;;;;32.45;19.52;;;;;;;-146.18;100.00;67994.34;10358966;27;20064;-73
2024/02/28 11:36:06;;;;;;;24.05;16.88;;;;;;;-146.18;100.00;67994.34;10355714;27;20040;-73
2024/02/28 11:41:03;;;;;;;26.92;19.52;;;;;;;-146.18;100.00;67994.34;10347832;27;20521;-69
2024/02/28 11:46:00;;;;;;;26.10;18.25;;;;;;;-146.18;100.00;67994.34;10346916;28;20043;-70
2024/02/28 11:50:58;;;;;;;28.88;17.38;;;;;;;-146.18;100.00;67994.34;10354620;27;20070;-73
2024/02/28 11:55:57;;;;;;;28.00;19.27;;;;;;;-146.18;100.00;67994.34;10357337;27;20066;-71
2024/02/28 12:00:54;;;;;;;26.17;18.23;;;;;;;-146.18;100.00;67994.34;10353258;27;20040;-72
2024/02/28 12:05:55;;;;;;;27.88;17.58;;;;;;;-146.18;100.00;67994.34;10345342;27;20058;-69
2024/02/28 12:10:52;;;;;;;29.50;20.80;;;;;;;-146.18;100.00;67994.34;10354477;27;20451;-70
2024/02/28 12:15:49;;;;;;;30.25;21.15;;;;;;;-146.18;100.00;67994.34;10363995;27;20040;-70
2024/02/28 12:20:47;;;;;;;29.65;19.77;;;;;;;-146.18;100.00;67994.34;10363886;27;20044;-69
2024/02/28 12:25:43;;;;;;;25.85;18.92;;;;;;;-146.18;100.00;67994.34;10352992;27;20047;-70
2024/02/28 12:30:44;;;;;;;30.55;19.77;;;;;;;-146.18;100.00;67994.34;10365422;27;20055;-72
2024/02/28 12:35:41;;;;;;;33.45;20.75;;;;;;;-146.18;100.00;67994.34;10356777;27;20040;-69
2024/02/28 12:40:38;;;;;;;31.45;20.48;;;;;;;-146.18;100.00;67994.34;10362628;27;20039;-73
2024/02/28 12:45:34;;;;;;;30.98;19.95;;;;;;;-146.18;100.00;67994.34;10361987;27;20047;-72
2024/02/28 12:50:33;;;;;;;32.30;22.00;;;;;;;-146.18;100.00;67994.34;10359271;27;20461;-69
2024/02/28 12:55:30;;;;;;;29.48;19.98;;;;;;;-146.18;100.00;67994.34;10355514;27;20040;-71
2024/02/28 13:00:26;;;;;;;28.98;20.50;;;;;;;-146.18;100.00;67994.34;10354333;27;20493;-69
2024/02/28 13:05:23;;;;;;;33.90;20.38;;;;;;;-146.18;100.00;67994.34;10355918;27;20042;-70
2024/02/28 13:10:21;;;;;;;34.78;21.35;;;;;;;-146.18;100.00;67994.34;10355313;27;20047;-69
2024/02/28 13:15:18;;;;;;;26.70;19.85;;;;;;;-146.18;100.00;67994.34;10354005;27;20105;-71
2024/02/28 13:20:15;;;;;;;28.48;19.02;;;;;;;-146.18;100.00;67994.34;10357610;27;20048;-71
2024/02/28 13:25:11;;;;;;;25.95;18.05;;;;;;;-146.18;100.00;67994.34;10354868;27;20396;-72
2024/02/28 13:30:08;;;;;;;26.45;18.33;;;;;;;-146.18;100.00;67994.34;10355551;27;20044;-69
2024/02/28 13:35:05;;;;;;;27.85;18.40;;;;;;;-146.18;100.00;67994.34;10353871;27;20051;-70
2024/02/28 13:40:04;;;;;;;26.83;18.98;;;;;;;-146.18;100.00;67994.34;10359062;27;20040;-70
2024/02/28 13:45:07;;;;;;;24.85;18.00;;;;;;;-146.18;100.00;67994.34;10342004;28;20404;-71
2024/02/28 13:50:03;;;;;;;23.17;17.35;;;;;;;-146.18;100.00;67994.34;10357560;27;20637;-71
2024/02/28 13:55:00;;;;;;;26.15;17.75;;;;;;;-146.18;100.00;67994.34;10361882;28;21255;-71
2024/02/28 13:59:56;;;;;;;29.40;18.73;;;;;;;-146.18;100.00;67994.34;10356740;28;20048;-70
2024/02/28 14:04:54;;;;;;;27.17;20.30;;;;;;;-146.18;100.00;67994.34;10353172;28;20048;-69
2024/02/28 14:09:50;;;;;;;28.45;19.05;;;;;;;-146.18;100.00;67994.34;10354394;27;20134;-70
2024/02/28 14:14:47;;;;;;;24.45;17.85;;;;;;;-146.18;100.00;67994.34;10357984;27;20044;-77
2024/02/28 14:19:43;;;;;;;26.35;17.55;;;;;;;-146.18;100.00;67994.34;10355675;27;20036;-71
2024/02/28 14:24:40;;;;;;;26.02;19.05;;;;;;;-146.18;100.00;67994.34;10346869;27;20503;-73
2024/02/28 14:29:36;;;;;;;31.08;19.38;;;;;;;-146.18;100.00;67994.34;10350986;27;20087;-72
2024/02/28 14:34:33;;;;;;;28.83;18.85;;;;;;;-146.18;100.00;67994.34;10354156;27;20040;-72
2024/02/28 14:39:29;;;;;;;26.63;18.00;;;;;;;-146.18;100.00;67994.34;10347683;27;20492;-70
2024/02/28 14:44:26;;;;;;;26.80;18.50;;;;;;;-146.18;100.00;67994.34;10352438;27;20052;-72
2024/02/28 14:49:23;;;;;;;25.67;18.63;;;;;;;-146.18;100.00;67994.34;10346099;28;20450;-69
2024/02/28 14:54:22;;;;;;;22.30;16.70;;;;;;;-146.18;100.00;67994.34;10346010;27;20495;-70
2024/02/28 14:59:19;;;;;;;23.60;16.05;;;;;;;-146.18;100.00;67994.34;10351593;27;20456;-73
2024/02/28 15:04:15;;;;;;;25.13;15.63;;;;;;;-146.18;100.00;67994.34;10346050;28;20044;-76
2024/02/28 15:09:12;;;;;;;20.23;15.23;;;;;;;-146.18;100.00;67994.34;10353170;28;20140;-69
2024/02/28 15:14:09;;;;;;;20.30;16.05;;;;;;;-146.18;100.00;67994.34;10364998;27;20048;-71
2024/02/28 15:19:05;;;;;;;22.67;15.00;;;;;;;-146.18;100.00;67994.34;10363731;27;20040;-72
2024/02/28 15:24:02;;;;;;;20.17;15.23;;;;;;;-146.18;100.00;67994.34;10342238;27;20036;-72
2024/02/28 15:28:59;;;;;;;19.23;16.58;;;;;;;-146.18;100.00;67994.34;10344724;28;20180;-73
2024/02/28 15:33:55;;;;;;;17.77;14.50;;;;;;;-146.18;100.00;67994.34;10349989;27;20515;-76
2024/02/28 15:38:52;;;;;;;21.08;16.08;;;;;;;-146.18;100.00;67994.34;10346781;27;20527;-71
2024/02/28 15:43:49;;;;;;;18.30;15.07;;;;;;;-146.18;100.00;67994.34;10352165;27;20048;-73
2024/02/28 15:48:45;;;;;;;21.30;15.27;;;;;;;-146.18;100.00;67994.34;10351715;27;20564;-73
2024/02/28 15:53:42;;;;;;;20.05;16.50;;;;;;;-146.18;100.00;67994.34;10354888;27;20044;-69
2024/02/28 15:58:39;;;;;;;22.95;15.95;;;;;;;-146.18;100.00;67994.34;10338342;27;20353;-73
2024/02/28 16:03:37;;;;;;;21.77;16.52;;;;;;;-146.18;100.00;67994.34;10345113;27;20058;-74
2024/02/28 16:08:41;;;;;;;20.85;16.90;;;;;;;-146.18;100.00;67994.34;10341719;28;20040;-70
2024/02/28 16:13:39;;;;;;;21.98;16.10;;;;;;;-146.18;100.00;67994.34;10338137;28;20080;-72
2024/02/28 16:18:36;;;;;;;22.40;16.08;;;;;;;-146.18;100.00;67994.34;10341286;28;20457;-75
2024/02/28 16:23:33;;;;;;;22.10;16.27;;;;;;;-146.18;100.00;67994.34;10344336;27;20477;-72
2024/02/28 16:28:30;;;;;;;21.58;15.30;;;;;;;-146.18;100.00;67994.34;10345360;27;20168;-71
2024/02/28 16:33:27;;;;;;;22.75;16.42;;;;;;;-146.18;100.00;67994.34;10337615;28;20135;-75
2024/02/28 16:38:24;;;;;;;21.13;16.23;;;;;;;-146.18;100.00;67994.34;10342675;27;20066;-71
2024/02/28 16:43:20;;;;;;;24.58;16.55;;;;;;;-146.18;100.00;67994.34;10338323;28;20504;-73
2024/02/28 16:48:17;;;;;;;20.98;16.63;;;;;;;-146.18;100.00;67994.34;10349888;27;20458;-72
2024/02/28 16:53:14;;;;;;;25.52;18.67;;;;;;;-146.18;100.00;67994.34;10355927;27;20052;-71
2024/02/28 16:58:11;;;;;;;25.63;18.35;;;;;;;-146.18;100.00;67994.34;10348726;27;20043;-70
2024/02/28 17:03:07;;;;;;;24.27;18.30;;;;;;;-146.18;100.00;67994.34;10348759;27;20079;-71
2024/02/28 17:08:04;;;;;;;34.80;19.05;;;;;;;-146.18;100.00;67994.34;10344407;27;20044;-72
2024/02/28 17:13:00;;;;;;;23.75;18.10;;;;;;;-146.18;100.00;67994.34;10348302;27;20404;-73
2024/02/28 17:17:57;;;;;;;30.80;18.80;;;;;;;-146.18;100.00;67994.34;10335671;27;20093;-72
2024/02/28 17:22:53;;;;;;;36.40;21.98;;;;;;;-146.18;100.00;67994.34;10349785;27;20052;-73
2024/02/28 17:27:50;;;;;;;25.55;18.25;;;;;;;-146.18;100.00;67994.34;10347169;27;20048;-72
2024/02/28 17:32:48;;;;;;;32.88;19.58;;;;;;;-146.18;100.00;67994.34;10349330;27;20043;-74
2024/02/28 17:37:45;;;;;;;33.53;20.75;;;;;;;-146.18;100.00;67994.34;10352336;27;20131;-73
2024/02/28 17:42:42;;;;;;;28.40;20.05;;;;;;;-146.18;100.00;67994.34;10338582;27;20044;-71
2024/02/28 17:47:39;;;;;;;34.75;21.23;;;;;;;-146.18;100.00;67994.34;10351292;28;20119;-71
2024/02/28 17:52:35;;;;;;;34.55;21.52;;;;;;;-146.18;100.00;67994.34;10351399;27;20059;-73
2024/02/28 17:57:35;;;;;;;36.80;21.70;;;;;;;-146.18;100.00;67994.34;10348823;28;20261;-72
2024/02/28 18:02:32;;;;;;;41.25;22.60;;;;;;;-146.18;100.00;67994.34;10355939;27;20048;-72
2024/02/28 18:07:28;;;;;;;40.78;23.05;;;;;;;-146.18;100.00;67994.34;10346555;27;20044;-72
2024/02/28 18:12:25;;;;;;;37.95;23.45;;;;;;;-146.18;100.00;67994.34;10345709;28;20044;-70
2024/02/28 18:17:22;;;;;;;39.25;23.63;;;;;;;-146.18;100.00;67994.34;10354171;27;20048;-72
2024/02/28 18:22:18;;;;;;;42.75;24.13;;;;;;;-146.18;100.00;67994.34;10344745;27;20044;-71
2024/02/28 18:27:15;;;;;;;37.72;22.98;;;;;;;-146.18;100.00;67994.34;10345840;27;20048;-72
2024/02/28 18:32:11;;;;;;;33.22;21.98;;;;;;;-146.18;100.00;67994.34;10346641;27;20059;-72
2024/02/28 18:37:08;;;;;;;33.35;22.27;;;;;;;-146.18;100.00;67994.34;10345103;27;20516;-72
2024/02/28 18:42:06;;;;;;;34.53;22.90;;;;;;;-146.18;100.00;67994.34;10344502;28;20045;-72
2024/02/28 18:47:02;;;;;;;45.70;23.52;;;;;;;-146.18;100.00;67994.34;10344849;27;20040;-71
2024/02/28 18:52:00;;;;;;;39.70;23.80;;;;;;;-146.18;100.00;67994.34;10350917;27;20059;-70
2024/02/28 18:56:56;;;;;;;35.83;23.15;;;;;;;-146.18;100.00;67994.34;10344150;27;20114;-72
2024/02/28 19:01:52;;;;;;;33.60;21.70;;;;;;;-146.18;100.00;67994.34;10353745;27;20093;-72
2024/02/28 19:06:49;;;;;;;34.17;21.58;;;;;;;-146.18;100.00;67994.34;10342659;27;20044;-70
2024/02/28 19:11:48;;;;;;;32.03;19.80;;;;;;;-146.18;100.00;67994.34;10340205;27;20130;-72
2024/02/28 19:16:44;;;;;;;36.90;21.90;;;;;;;-146.18;100.00;67994.34;10341504;27;20040;-72
2024/02/28 19:21:41;;;;;;;28.90;20.08;;;;;;;-146.18;100.00;67994.34;10347842;27;20151;-71
2024/02/28 19:26:37;;;;;;;32.58;20.75;;;;;;;-146.18;100.00;67994.34;10346588;28;20426;-72
2024/02/28 19:31:34;;;;;;;27.35;19.48;;;;;;;-146.18;100.00;67994.34;10344511;27;20557;-70
2024/02/28 19:36:31;;;;;;;26.42;19.08;;;;;;;-146.18;100.00;67994.34;10363228;27;20097;-73
2024/02/28 19:41:27;;;;;;;26.95;18.55;;;;;;;-146.18;100.00;67994.34;10346261;27;20124;-72
2024/02/28 19:46:24;;;;;;;28.58;19.52;;;;;;;-146.18;100.00;67994.34;10345327;27;20055;-71
2024/02/28 19:51:21;;;;;;;29.17;19.15;;;;;;;-146.18;100.00;67994.34;10350519;28;20550;-71
2024/02/28 19:56:17;;;;;;;25.83;18.85;;;;;;;-146.18;100.00;67994.34;10349172;27;20299;-73
2024/02/28 20:01:14;;;;;;;28.25;18.80;;;;;;;-146.18;100.00;67994.34;10347936;27;20465;-71
2024/02/28 20:06:10;;;;;;;27.83;17.60;;;;;;;-146.18;100.00;67994.34;10341031;28;20044;-72
2024/02/28 20:11:07;;;;;;;26.80;17.55;;;;;;;-146.18;100.00;67994.34;10346493;27;20036;-71
2024/02/28 20:16:04;;;;;;;26.08;17.38;;;;;;;-146.18;100.00;67994.34;10339982;27;20041;-70
2024/02/28 20:21:07;;;;;;;22.40;15.60;;;;;;;-146.18;100.00;67994.34;10345298;27;20044;-72
2024/02/28 20:26:16;;;;;;;31.27;18.40;;;;;;;-146.18;100.00;67994.34;10348614;28;20039;-72
2024/02/28 20:31:15;;;;;;;27.85;18.42;;;;;;;-146.18;100.00;67994.34;10350971;27;20071;-74
2024/02/28 20:36:13;;;;;;;32.45;19.27;;;;;;;-146.18;100.00;67994.34;10348911;27;20410;-73
2024/02/28 20:41:10;;;;;;;26.35;17.55;;;;;;;-146.18;100.00;67994.34;10358600;27;20491;-71
2024/02/28 20:46:06;;;;;;;27.45;18.90;;;;;;;-146.18;100.00;67994.34;10359725;27;20040;-71
2024/02/28 20:51:03;;;;;;;27.48;18.38;;;;;;;-146.18;100.00;67994.34;10348462;28;20465;-74
2024/02/28 20:55:59;;;;;;;32.15;20.80;;;;;;;-146.18;100.00;67994.34;10362329;27;21262;-72
2024/02/28 21:00:58;;;;;;;34.28;20.20;;;;;;;-146.18;100.00;67994.34;10355775;27;20048;-73
2024/02/28 21:05:54;;;;;;;33.45;22.15;;;;;;;-146.18;100.00;67994.34;10353065;27;20094;-72
2024/02/28 21:10:51;;;;;;;30.58;20.70;;;;;;;-146.18;100.00;67994.34;10355672;27;20075;-71
2024/02/28 21:15:47;;;;;;;35.95;21.98;;;;;;;-146.18;100.00;67994.34;10349544;27;20059;-71
2024/02/28 21:20:45;;;;;;;36.28;22.55;;;;;;;-146.18;100.00;67994.34;10352186;27;20097;-74
2024/02/28 21:25:41;;;;;;;29.70;21.48;;;;;;;-146.18;100.00;67994.34;10358478;28;20043;-72
2024/02/28 21:30:38;;;;;;;39.28;24.05;;;;;;;-146.18;100.00;67994.34;10360545;27;20052;-71
2024/02/28 21:35:42;;;;;;;39.42;22.88;;;;;;;-146.18;100.00;67994.34;10337772;28;20094;-72
2024/02/28 21:40:38;;;;;;;39.35;23.05;;;;;;;-146.18;100.00;67994.34;10349814;27;20082;-71
2024/02/28 21:45:35;;;;;;;39.30;21.13;;;;;;;-146.18;100.00;67994.34;10357449;27;20047;-72